sensor_id;sensor_type;location;lat;lon;timestamp;P1;durP1;ratioP1;P2;durP2;ratioP2
34765;SDS011;20984;43.508;1.504;2023-07-31T00:02:03;11.15;;;6.00;;
34765;SDS011;20984;43.508;1.504;2023-07-31T00:04:29;7.20;;;5.07;;
34765;SDS011;20984;43.508;1.504;2023-07-31T00:06:54;6.13;;;5.03;;
34765;SDS011;20984;43.508;1.504;2023-07-31T00:09:20;7.70;;;4.50;;
34765;SDS011;20984;43.508;1.504;2023-07-31T00:11:46;9.10;;;4.47;;
34765;SDS011;20984;43.508;1.504;2023-07-31T00:14:11;11.20;;;5.25;;
34765;SDS011;20984;43.508;1.504;2023-07-31T00:16:37;8.30;;;4.35;;
34765;SDS011;20984;43.508;1.504;2023-07-31T00:19:03;6.60;;;4.78;;
34765;SDS011;20984;43.508;1.504;2023-07-31T00:21:28;8.40;;;4.80;;
34765;SDS011;20984;43.508;1.504;2023-07-31T00:23:54;9.55;;;4.95;;
34765;SDS011;20984;43.508;1.504;2023-07-31T00:26:19;8.35;;;5.15;;
34765;SDS011;20984;43.508;1.504;2023-07-31T00:28:45;11.60;;;5.45;;
34765;SDS011;20984;43.508;1.504;2023-07-31T00:31:11;9.05;;;5.22;;
34765;SDS011;20984;43.508;1.504;2023-07-31T00:33:37;8.82;;;4.40;;
34765;SDS011;20984;43.508;1.504;2023-07-31T00:36:03;7.18;;;4.07;;
34765;SDS011;20984;43.508;1.504;2023-07-31T00:38:29;10.70;;;5.45;;
34765;SDS011;20984;43.508;1.504;2023-07-31T00:40:54;8.52;;;4.68;;
34765;SDS011;20984;43.508;1.504;2023-07-31T00:43:20;12.48;;;5.03;;
34765;SDS011;20984;43.508;1.504;2023-07-31T00:45:46;11.93;;;5.05;;
34765;SDS011;20984;43.508;1.504;2023-07-31T00:48:11;12.45;;;5.05;;
34765;SDS011;20984;43.508;1.504;2023-07-31T00:50:37;9.30;;;5.07;;
34765;SDS011;20984;43.508;1.504;2023-07-31T00:53:03;10.07;;;5.55;;
34765;SDS011;20984;43.508;1.504;2023-07-31T00:55:29;9.55;;;4.40;;
34765;SDS011;20984;43.508;1.504;2023-07-31T00:57:56;7.68;;;5.03;;
34765;SDS011;20984;43.508;1.504;2023-07-31T01:00:21;9.88;;;5.03;;
34765;SDS011;20984;43.508;1.504;2023-07-31T01:02:50;10.43;;;4.80;;
34765;SDS011;20984;43.508;1.504;2023-07-31T01:05:17;9.77;;;5.13;;
34765;SDS011;20984;43.508;1.504;2023-07-31T01:10:54;8.18;;;4.53;;
34765;SDS011;20984;43.508;1.504;2023-07-31T01:13:25;12.45;;;5.20;;
34765;SDS011;20984;43.508;1.504;2023-07-31T01:15:51;6.57;;;4.70;;
34765;SDS011;20984;43.508;1.504;2023-07-31T01:18:17;10.52;;;4.75;;
34765;SDS011;20984;43.508;1.504;2023-07-31T01:20:42;12.77;;;5.78;;
34765;SDS011;20984;43.508;1.504;2023-07-31T01:26:12;9.35;;;6.30;;
34765;SDS011;20984;43.508;1.504;2023-07-31T01:31:47;14.30;;;5.75;;
34765;SDS011;20984;43.508;1.504;2023-07-31T01:34:15;8.70;;;4.60;;
34765;SDS011;20984;43.508;1.504;2023-07-31T01:36:43;8.23;;;5.20;;
34765;SDS011;20984;43.508;1.504;2023-07-31T01:39:09;9.32;;;5.28;;
34765;SDS011;20984;43.508;1.504;2023-07-31T01:41:34;9.75;;;4.72;;
34765;SDS011;20984;43.508;1.504;2023-07-31T01:44:00;8.27;;;5.40;;
34765;SDS011;20984;43.508;1.504;2023-07-31T01:46:26;8.38;;;5.68;;
34765;SDS011;20984;43.508;1.504;2023-07-31T01:48:51;12.50;;;5.20;;
34765;SDS011;20984;43.508;1.504;2023-07-31T01:51:17;9.75;;;5.80;;
34765;SDS011;20984;43.508;1.504;2023-07-31T01:53:43;11.27;;;5.80;;
34765;SDS011;20984;43.508;1.504;2023-07-31T01:56:08;11.07;;;6.30;;
34765;SDS011;20984;43.508;1.504;2023-07-31T01:58:34;11.80;;;5.60;;
34765;SDS011;20984;43.508;1.504;2023-07-31T02:00:59;8.63;;;5.35;;
34765;SDS011;20984;43.508;1.504;2023-07-31T02:03:25;9.18;;;5.18;;
34765;SDS011;20984;43.508;1.504;2023-07-31T02:05:51;7.18;;;5.07;;
34765;SDS011;20984;43.508;1.504;2023-07-31T02:08:16;9.80;;;5.53;;
34765;SDS011;20984;43.508;1.504;2023-07-31T02:10:42;10.05;;;5.88;;
34765;SDS011;20984;43.508;1.504;2023-07-31T02:13:08;8.23;;;4.88;;
34765;SDS011;20984;43.508;1.504;2023-07-31T02:15:34;12.75;;;5.75;;
34765;SDS011;20984;43.508;1.504;2023-07-31T02:17:59;9.68;;;5.43;;
34765;SDS011;20984;43.508;1.504;2023-07-31T02:20:25;11.15;;;4.75;;
34765;SDS011;20984;43.508;1.504;2023-07-31T02:22:51;11.18;;;5.25;;
34765;SDS011;20984;43.508;1.504;2023-07-31T02:25:16;13.90;;;5.43;;
34765;SDS011;20984;43.508;1.504;2023-07-31T02:27:42;12.43;;;5.85;;
34765;SDS011;20984;43.508;1.504;2023-07-31T02:30:08;7.63;;;5.32;;
34765;SDS011;20984;43.508;1.504;2023-07-31T02:32:34;8.10;;;5.35;;
34765;SDS011;20984;43.508;1.504;2023-07-31T02:34:59;10.73;;;5.75;;
34765;SDS011;20984;43.508;1.504;2023-07-31T02:37:25;9.60;;;5.30;;
34765;SDS011;20984;43.508;1.504;2023-07-31T02:39:51;11.50;;;5.50;;
34765;SDS011;20984;43.508;1.504;2023-07-31T02:42:16;10.48;;;5.80;;
34765;SDS011;20984;43.508;1.504;2023-07-31T02:44:42;12.35;;;5.40;;
34765;SDS011;20984;43.508;1.504;2023-07-31T02:47:08;11.45;;;5.15;;
34765;SDS011;20984;43.508;1.504;2023-07-31T02:49:34;10.60;;;5.72;;
34765;SDS011;20984;43.508;1.504;2023-07-31T02:51:59;8.95;;;5.95;;
34765;SDS011;20984;43.508;1.504;2023-07-31T02:54:25;14.20;;;5.82;;
34765;SDS011;20984;43.508;1.504;2023-07-31T02:56:51;9.18;;;6.50;;
34765;SDS011;20984;43.508;1.504;2023-07-31T02:59:16;15.52;;;7.78;;
34765;SDS011;20984;43.508;1.504;2023-07-31T03:01:43;14.45;;;7.97;;
34765;SDS011;20984;43.508;1.504;2023-07-31T03:04:09;15.43;;;10.15;;
34765;SDS011;20984;43.508;1.504;2023-07-31T03:06:34;17.10;;;9.50;;
34765;SDS011;20984;43.508;1.504;2023-07-31T03:09:00;22.55;;;11.10;;
34765;SDS011;20984;43.508;1.504;2023-07-31T03:11:26;14.98;;;9.20;;
34765;SDS011;20984;43.508;1.504;2023-07-31T03:13:51;17.35;;;9.95;;
34765;SDS011;20984;43.508;1.504;2023-07-31T03:16:17;17.48;;;9.85;;
34765;SDS011;20984;43.508;1.504;2023-07-31T03:18:42;16.67;;;10.43;;
34765;SDS011;20984;43.508;1.504;2023-07-31T03:21:08;18.90;;;9.52;;
34765;SDS011;20984;43.508;1.504;2023-07-31T03:23:34;13.95;;;8.48;;
34765;SDS011;20984;43.508;1.504;2023-07-31T03:26:00;13.50;;;8.40;;
34765;SDS011;20984;43.508;1.504;2023-07-31T03:28:28;15.23;;;7.30;;
34765;SDS011;20984;43.508;1.504;2023-07-31T03:30:54;13.90;;;6.82;;
34765;SDS011;20984;43.508;1.504;2023-07-31T03:33:20;11.82;;;7.45;;
34765;SDS011;20984;43.508;1.504;2023-07-31T03:35:46;10.43;;;6.05;;
34765;SDS011;20984;43.508;1.504;2023-07-31T03:38:11;9.38;;;5.85;;
34765;SDS011;20984;43.508;1.504;2023-07-31T03:40:37;13.13;;;5.93;;
34765;SDS011;20984;43.508;1.504;2023-07-31T03:43:03;9.90;;;5.22;;
34765;SDS011;20984;43.508;1.504;2023-07-31T03:45:30;13.40;;;5.90;;
34765;SDS011;20984;43.508;1.504;2023-07-31T03:47:55;9.70;;;4.88;;
34765;SDS011;20984;43.508;1.504;2023-07-31T03:50:21;11.13;;;5.75;;
34765;SDS011;20984;43.508;1.504;2023-07-31T03:52:47;13.23;;;4.95;;
34765;SDS011;20984;43.508;1.504;2023-07-31T03:55:12;9.60;;;5.40;;
34765;SDS011;20984;43.508;1.504;2023-07-31T03:57:38;8.45;;;5.22;;
34765;SDS011;20984;43.508;1.504;2023-07-31T04:00:04;10.13;;;5.15;;
34765;SDS011;20984;43.508;1.504;2023-07-31T04:02:30;8.63;;;5.15;;
34765;SDS011;20984;43.508;1.504;2023-07-31T04:04:55;12.85;;;5.30;;
34765;SDS011;20984;43.508;1.504;2023-07-31T04:07:21;12.65;;;5.10;;
34765;SDS011;20984;43.508;1.504;2023-07-31T04:09:47;9.98;;;5.32;;
34765;SDS011;20984;43.508;1.504;2023-07-31T04:12:12;9.50;;;4.93;;
34765;SDS011;20984;43.508;1.504;2023-07-31T04:14:38;7.10;;;5.22;;
34765;SDS011;20984;43.508;1.504;2023-07-31T04:17:03;11.15;;;5.55;;
34765;SDS011;20984;43.508;1.504;2023-07-31T04:19:29;11.25;;;5.30;;
34765;SDS011;20984;43.508;1.504;2023-07-31T04:21:55;9.90;;;5.45;;
34765;SDS011;20984;43.508;1.504;2023-07-31T04:24:20;10.30;;;5.65;;
34765;SDS011;20984;43.508;1.504;2023-07-31T04:26:52;9.40;;;5.43;;
34765;SDS011;20984;43.508;1.504;2023-07-31T04:29:18;10.32;;;5.53;;
34765;SDS011;20984;43.508;1.504;2023-07-31T04:31:44;9.70;;;5.30;;
34765;SDS011;20984;43.508;1.504;2023-07-31T04:34:10;10.02;;;4.95;;
34765;SDS011;20984;43.508;1.504;2023-07-31T04:36:37;10.63;;;5.70;;
34765;SDS011;20984;43.508;1.504;2023-07-31T04:39:02;10.93;;;5.88;;
34765;SDS011;20984;43.508;1.504;2023-07-31T04:41:29;10.82;;;5.45;;
34765;SDS011;20984;43.508;1.504;2023-07-31T04:43:54;8.50;;;5.30;;
34765;SDS011;20984;43.508;1.504;2023-07-31T04:46:20;7.15;;;5.32;;
34765;SDS011;20984;43.508;1.504;2023-07-31T04:48:45;10.38;;;5.13;;
34765;SDS011;20984;43.508;1.504;2023-07-31T04:51:11;13.07;;;6.20;;
34765;SDS011;20984;43.508;1.504;2023-07-31T04:53:37;10.23;;;5.45;;
34765;SDS011;20984;43.508;1.504;2023-07-31T04:56:03;9.18;;;4.85;;
34765;SDS011;20984;43.508;1.504;2023-07-31T04:58:28;9.52;;;4.93;;
34765;SDS011;20984;43.508;1.504;2023-07-31T05:00:54;12.38;;;5.30;;
34765;SDS011;20984;43.508;1.504;2023-07-31T05:03:20;12.07;;;4.90;;
34765;SDS011;20984;43.508;1.504;2023-07-31T05:05:45;9.45;;;5.20;;
34765;SDS011;20984;43.508;1.504;2023-07-31T05:08:11;8.00;;;4.88;;
34765;SDS011;20984;43.508;1.504;2023-07-31T05:10:37;11.30;;;4.80;;
34765;SDS011;20984;43.508;1.504;2023-07-31T05:13:02;9.35;;;5.30;;
34765;SDS011;20984;43.508;1.504;2023-07-31T05:15:28;15.80;;;5.25;;
34765;SDS011;20984;43.508;1.504;2023-07-31T05:17:54;14.32;;;6.72;;
34765;SDS011;20984;43.508;1.504;2023-07-31T05:20:20;12.32;;;4.88;;
34765;SDS011;20984;43.508;1.504;2023-07-31T05:22:46;9.05;;;4.90;;
34765;SDS011;20984;43.508;1.504;2023-07-31T05:25:12;10.73;;;5.43;;
34765;SDS011;20984;43.508;1.504;2023-07-31T05:27:38;12.48;;;4.90;;
34765;SDS011;20984;43.508;1.504;2023-07-31T05:30:04;10.27;;;5.00;;
34765;SDS011;20984;43.508;1.504;2023-07-31T05:32:30;11.60;;;5.03;;
34765;SDS011;20984;43.508;1.504;2023-07-31T05:34:56;11.43;;;5.28;;
34765;SDS011;20984;43.508;1.504;2023-07-31T05:37:22;8.60;;;4.68;;
34765;SDS011;20984;43.508;1.504;2023-07-31T05:39:47;12.02;;;4.60;;
34765;SDS011;20984;43.508;1.504;2023-07-31T05:42:13;12.05;;;5.57;;
34765;SDS011;20984;43.508;1.504;2023-07-31T05:44:39;8.43;;;5.07;;
34765;SDS011;20984;43.508;1.504;2023-07-31T05:47:04;6.97;;;4.28;;
34765;SDS011;20984;43.508;1.504;2023-07-31T05:49:30;12.65;;;5.28;;
34765;SDS011;20984;43.508;1.504;2023-07-31T05:51:56;12.93;;;5.03;;
34765;SDS011;20984;43.508;1.504;2023-07-31T05:54:21;7.43;;;5.22;;
34765;SDS011;20984;43.508;1.504;2023-07-31T05:56:47;13.48;;;5.53;;
34765;SDS011;20984;43.508;1.504;2023-07-31T05:59:13;8.40;;;4.97;;
34765;SDS011;20984;43.508;1.504;2023-07-31T06:01:38;11.27;;;4.93;;
34765;SDS011;20984;43.508;1.504;2023-07-31T06:04:04;12.00;;;4.93;;
34765;SDS011;20984;43.508;1.504;2023-07-31T06:06:30;9.05;;;4.53;;
34765;SDS011;20984;43.508;1.504;2023-07-31T06:08:56;11.95;;;4.00;;
34765;SDS011;20984;43.508;1.504;2023-07-31T06:11:22;13.13;;;4.88;;
34765;SDS011;20984;43.508;1.504;2023-07-31T06:13:48;8.98;;;4.45;;
34765;SDS011;20984;43.508;1.504;2023-07-31T06:16:15;11.05;;;5.05;;
34765;SDS011;20984;43.508;1.504;2023-07-31T06:18:42;12.93;;;4.68;;
34765;SDS011;20984;43.508;1.504;2023-07-31T06:21:08;10.05;;;4.80;;
34765;SDS011;20984;43.508;1.504;2023-07-31T06:23:35;10.43;;;4.55;;
34765;SDS011;20984;43.508;1.504;2023-07-31T06:26:00;9.98;;;4.32;;
34765;SDS011;20984;43.508;1.504;2023-07-31T06:28:30;11.05;;;3.65;;
34765;SDS011;20984;43.508;1.504;2023-07-31T06:30:56;12.13;;;5.30;;
34765;SDS011;20984;43.508;1.504;2023-07-31T06:33:23;13.32;;;4.40;;
34765;SDS011;20984;43.508;1.504;2023-07-31T06:35:48;10.27;;;4.75;;
34765;SDS011;20984;43.508;1.504;2023-07-31T06:38:14;13.27;;;3.97;;
34765;SDS011;20984;43.508;1.504;2023-07-31T06:40:40;10.98;;;4.63;;
34765;SDS011;20984;43.508;1.504;2023-07-31T06:43:05;13.45;;;6.68;;
34765;SDS011;20984;43.508;1.504;2023-07-31T06:45:33;15.88;;;4.38;;
34765;SDS011;20984;43.508;1.504;2023-07-31T06:48:00;12.98;;;4.68;;
34765;SDS011;20984;43.508;1.504;2023-07-31T06:50:27;7.70;;;3.85;;
34765;SDS011;20984;43.508;1.504;2023-07-31T06:52:56;9.93;;;3.67;;
34765;SDS011;20984;43.508;1.504;2023-07-31T06:55:22;11.48;;;4.45;;
34765;SDS011;20984;43.508;1.504;2023-07-31T06:57:49;8.73;;;4.35;;
34765;SDS011;20984;43.508;1.504;2023-07-31T07:00:17;11.70;;;4.45;;
34765;SDS011;20984;43.508;1.504;2023-07-31T07:02:43;9.02;;;3.72;;
34765;SDS011;20984;43.508;1.504;2023-07-31T07:05:09;7.22;;;3.65;;
34765;SDS011;20984;43.508;1.504;2023-07-31T07:07:35;13.18;;;5.15;;
34765;SDS011;20984;43.508;1.504;2023-07-31T07:10:01;10.10;;;4.55;;
34765;SDS011;20984;43.508;1.504;2023-07-31T07:12:32;13.93;;;4.50;;
34765;SDS011;20984;43.508;1.504;2023-07-31T07:14:58;10.13;;;3.87;;
34765;SDS011;20984;43.508;1.504;2023-07-31T07:17:24;9.80;;;4.45;;
34765;SDS011;20984;43.508;1.504;2023-07-31T07:19:57;10.98;;;4.20;;
34765;SDS011;20984;43.508;1.504;2023-07-31T07:22:23;8.05;;;4.53;;
34765;SDS011;20984;43.508;1.504;2023-07-31T07:24:49;11.68;;;5.00;;
34765;SDS011;20984;43.508;1.504;2023-07-31T07:27:15;12.30;;;4.38;;
34765;SDS011;20984;43.508;1.504;2023-07-31T07:29:41;8.05;;;4.00;;
34765;SDS011;20984;43.508;1.504;2023-07-31T07:32:07;13.10;;;4.57;;
34765;SDS011;20984;43.508;1.504;2023-07-31T07:34:32;6.22;;;3.40;;
34765;SDS011;20984;43.508;1.504;2023-07-31T07:36:58;13.82;;;5.03;;
34765;SDS011;20984;43.508;1.504;2023-07-31T07:39:24;10.80;;;4.78;;
34765;SDS011;20984;43.508;1.504;2023-07-31T07:41:50;11.85;;;3.70;;
34765;SDS011;20984;43.508;1.504;2023-07-31T07:44:15;8.48;;;4.25;;
34765;SDS011;20984;43.508;1.504;2023-07-31T07:46:41;9.30;;;4.38;;
34765;SDS011;20984;43.508;1.504;2023-07-31T07:49:07;11.30;;;4.35;;
34765;SDS011;20984;43.508;1.504;2023-07-31T07:51:32;12.02;;;4.47;;
34765;SDS011;20984;43.508;1.504;2023-07-31T07:53:58;14.50;;;4.45;;
34765;SDS011;20984;43.508;1.504;2023-07-31T07:56:25;12.02;;;3.95;;
34765;SDS011;20984;43.508;1.504;2023-07-31T07:58:52;9.68;;;3.95;;
34765;SDS011;20984;43.508;1.504;2023-07-31T08:01:18;9.98;;;4.22;;
34765;SDS011;20984;43.508;1.504;2023-07-31T08:03:44;12.45;;;4.07;;
34765;SDS011;20984;43.508;1.504;2023-07-31T08:06:09;7.82;;;3.85;;
34765;SDS011;20984;43.508;1.504;2023-07-31T08:08:36;12.85;;;4.30;;
34765;SDS011;20984;43.508;1.504;2023-07-31T08:11:02;10.88;;;4.90;;
34765;SDS011;20984;43.508;1.504;2023-07-31T08:13:27;9.02;;;4.03;;
34765;SDS011;20984;43.508;1.504;2023-07-31T08:15:53;13.38;;;4.13;;
34765;SDS011;20984;43.508;1.504;2023-07-31T08:18:19;6.97;;;4.15;;
34765;SDS011;20984;43.508;1.504;2023-07-31T08:20:45;7.80;;;4.00;;
34765;SDS011;20984;43.508;1.504;2023-07-31T08:23:11;13.70;;;3.60;;
34765;SDS011;20984;43.508;1.504;2023-07-31T08:25:37;9.23;;;3.42;;
34765;SDS011;20984;43.508;1.504;2023-07-31T08:28:03;12.60;;;3.85;;
34765;SDS011;20984;43.508;1.504;2023-07-31T08:30:30;9.93;;;3.55;;
34765;SDS011;20984;43.508;1.504;2023-07-31T08:32:55;10.40;;;3.47;;
34765;SDS011;20984;43.508;1.504;2023-07-31T08:35:21;9.38;;;3.67;;
34765;SDS011;20984;43.508;1.504;2023-07-31T08:37:47;7.82;;;4.10;;
34765;SDS011;20984;43.508;1.504;2023-07-31T08:40:13;8.50;;;3.42;;
34765;SDS011;20984;43.508;1.504;2023-07-31T08:42:45;11.05;;;3.92;;
34765;SDS011;20984;43.508;1.504;2023-07-31T08:45:16;11.32;;;4.25;;
34765;SDS011;20984;43.508;1.504;2023-07-31T08:47:49;8.70;;;3.72;;
34765;SDS011;20984;43.508;1.504;2023-07-31T08:50:16;7.28;;;3.75;;
34765;SDS011;20984;43.508;1.504;2023-07-31T08:52:44;10.60;;;4.00;;
34765;SDS011;20984;43.508;1.504;2023-07-31T08:55:10;8.95;;;4.10;;
34765;SDS011;20984;43.508;1.504;2023-07-31T08:57:37;7.75;;;3.65;;
34765;SDS011;20984;43.508;1.504;2023-07-31T09:00:06;7.30;;;3.40;;
34765;SDS011;20984;43.508;1.504;2023-07-31T09:02:37;7.47;;;3.55;;
34765;SDS011;20984;43.508;1.504;2023-07-31T09:05:13;10.13;;;4.32;;
34765;SDS011;20984;43.508;1.504;2023-07-31T09:07:40;9.82;;;3.38;;
34765;SDS011;20984;43.508;1.504;2023-07-31T09:10:07;5.93;;;2.80;;
34765;SDS011;20984;43.508;1.504;2023-07-31T09:12:33;10.40;;;3.95;;
34765;SDS011;20984;43.508;1.504;2023-07-31T09:14:59;6.00;;;3.05;;
34765;SDS011;20984;43.508;1.504;2023-07-31T09:17:29;9.50;;;3.42;;
34765;SDS011;20984;43.508;1.504;2023-07-31T09:19:56;7.88;;;3.42;;
34765;SDS011;20984;43.508;1.504;2023-07-31T09:22:41;6.95;;;3.58;;
34765;SDS011;20984;43.508;1.504;2023-07-31T09:25:17;8.27;;;2.42;;
34765;SDS011;20984;43.508;1.504;2023-07-31T09:27:50;4.25;;;2.53;;
34765;SDS011;20984;43.508;1.504;2023-07-31T09:30:23;6.07;;;3.33;;
34765;SDS011;20984;43.508;1.504;2023-07-31T09:32:50;8.30;;;3.08;;
34765;SDS011;20984;43.508;1.504;2023-07-31T09:35:21;12.65;;;3.58;;
34765;SDS011;20984;43.508;1.504;2023-07-31T09:37:54;6.25;;;2.70;;
34765;SDS011;20984;43.508;1.504;2023-07-31T09:40:25;5.57;;;3.05;;
34765;SDS011;20984;43.508;1.504;2023-07-31T09:42:52;5.93;;;2.60;;
34765;SDS011;20984;43.508;1.504;2023-07-31T09:45:22;8.50;;;2.40;;
34765;SDS011;20984;43.508;1.504;2023-07-31T09:47:48;9.15;;;2.72;;
34765;SDS011;20984;43.508;1.504;2023-07-31T09:50:14;5.43;;;2.72;;
34765;SDS011;20984;43.508;1.504;2023-07-31T09:52:43;6.15;;;2.28;;
34765;SDS011;20984;43.508;1.504;2023-07-31T09:55:09;5.20;;;2.58;;
34765;SDS011;20984;43.508;1.504;2023-07-31T09:57:46;6.13;;;2.55;;
34765;SDS011;20984;43.508;1.504;2023-07-31T10:00:13;6.75;;;3.30;;
34765;SDS011;20984;43.508;1.504;2023-07-31T10:02:41;7.75;;;2.70;;
34765;SDS011;20984;43.508;1.504;2023-07-31T10:05:09;7.35;;;2.67;;
34765;SDS011;20984;43.508;1.504;2023-07-31T10:07:40;6.93;;;2.33;;
34765;SDS011;20984;43.508;1.504;2023-07-31T10:10:07;4.47;;;2.40;;
34765;SDS011;20984;43.508;1.504;2023-07-31T10:12:36;6.20;;;2.22;;
34765;SDS011;20984;43.508;1.504;2023-07-31T10:15:03;4.05;;;2.47;;
34765;SDS011;20984;43.508;1.504;2023-07-31T10:17:30;4.53;;;2.58;;
34765;SDS011;20984;43.508;1.504;2023-07-31T10:19:57;4.78;;;2.30;;
34765;SDS011;20984;43.508;1.504;2023-07-31T10:22:26;4.00;;;2.42;;
34765;SDS011;20984;43.508;1.504;2023-07-31T10:24:52;5.78;;;2.65;;
34765;SDS011;20984;43.508;1.504;2023-07-31T10:27:20;4.22;;;1.90;;
34765;SDS011;20984;43.508;1.504;2023-07-31T10:29:45;7.00;;;2.67;;
34765;SDS011;20984;43.508;1.504;2023-07-31T10:32:13;5.22;;;1.90;;
34765;SDS011;20984;43.508;1.504;2023-07-31T10:34:41;4.53;;;1.90;;
34765;SDS011;20984;43.508;1.504;2023-07-31T10:39:55;4.43;;;2.30;;
34765;SDS011;20984;43.508;1.504;2023-07-31T10:42:49;8.57;;;2.40;;
34765;SDS011;20984;43.508;1.504;2023-07-31T10:45:27;10.07;;;4.25;;
34765;SDS011;20984;43.508;1.504;2023-07-31T10:47:59;4.80;;;2.13;;
34765;SDS011;20984;43.508;1.504;2023-07-31T10:50:29;5.20;;;2.47;;
34765;SDS011;20984;43.508;1.504;2023-07-31T10:52:58;5.47;;;2.40;;
34765;SDS011;20984;43.508;1.504;2023-07-31T10:55:32;8.73;;;3.33;;
34765;SDS011;20984;43.508;1.504;2023-07-31T10:58:13;4.85;;;2.25;;
34765;SDS011;20984;43.508;1.504;2023-07-31T11:00:40;4.53;;;2.28;;
34765;SDS011;20984;43.508;1.504;2023-07-31T11:06:19;4.57;;;2.45;;
34765;SDS011;20984;43.508;1.504;2023-07-31T11:08:32;4.95;;;2.40;;
34765;SDS011;20984;43.508;1.504;2023-07-31T11:13:28;8.07;;;2.50;;
34765;SDS011;20984;43.508;1.504;2023-07-31T11:16:15;8.95;;;2.67;;
34765;SDS011;20984;43.508;1.504;2023-07-31T11:18:43;4.28;;;2.17;;
34765;SDS011;20984;43.508;1.504;2023-07-31T11:21:16;5.30;;;2.40;;
34765;SDS011;20984;43.508;1.504;2023-07-31T11:23:48;4.80;;;2.75;;
34765;SDS011;20984;43.508;1.504;2023-07-31T11:26:15;8.75;;;2.72;;
34765;SDS011;20984;43.508;1.504;2023-07-31T11:28:41;6.45;;;2.30;;
34765;SDS011;20984;43.508;1.504;2023-07-31T11:31:10;6.90;;;2.63;;
34765;SDS011;20984;43.508;1.504;2023-07-31T11:33:36;5.38;;;2.53;;
34765;SDS011;20984;43.508;1.504;2023-07-31T11:36:02;7.90;;;2.92;;
34765;SDS011;20984;43.508;1.504;2023-07-31T11:38:36;7.43;;;2.85;;
34765;SDS011;20984;43.508;1.504;2023-07-31T11:41:03;6.57;;;2.25;;
34765;SDS011;20984;43.508;1.504;2023-07-31T11:43:29;5.55;;;2.45;;
34765;SDS011;20984;43.508;1.504;2023-07-31T11:45:57;3.58;;;2.40;;
34765;SDS011;20984;43.508;1.504;2023-07-31T11:50:52;5.05;;;2.38;;
34765;SDS011;20984;43.508;1.504;2023-07-31T11:53:26;5.18;;;1.92;;
34765;SDS011;20984;43.508;1.504;2023-07-31T11:55:55;4.45;;;2.92;;
34765;SDS011;20984;43.508;1.504;2023-07-31T11:58:24;5.03;;;2.80;;
34765;SDS011;20984;43.508;1.504;2023-07-31T12:00:50;4.55;;;2.22;;
34765;SDS011;20984;43.508;1.504;2023-07-31T12:03:16;4.20;;;2.55;;
34765;SDS011;20984;43.508;1.504;2023-07-31T12:05:43;5.28;;;2.50;;
34765;SDS011;20984;43.508;1.504;2023-07-31T12:08:10;11.23;;;2.70;;
34765;SDS011;20984;43.508;1.504;2023-07-31T12:10:40;6.18;;;2.40;;
34765;SDS011;20984;43.508;1.504;2023-07-31T12:13:09;4.00;;;2.20;;
34765;SDS011;20984;43.508;1.504;2023-07-31T12:15:43;5.07;;;2.55;;
34765;SDS011;20984;43.508;1.504;2023-07-31T12:18:10;4.72;;;2.30;;
34765;SDS011;20984;43.508;1.504;2023-07-31T12:20:47;10.82;;;2.67;;
34765;SDS011;20984;43.508;1.504;2023-07-31T12:23:17;4.82;;;2.10;;
34765;SDS011;20984;43.508;1.504;2023-07-31T12:28:26;7.45;;;2.85;;
34765;SDS011;20984;43.508;1.504;2023-07-31T12:30:52;5.72;;;2.33;;
34765;SDS011;20984;43.508;1.504;2023-07-31T12:33:23;6.63;;;2.47;;
34765;SDS011;20984;43.508;1.504;2023-07-31T12:35:48;4.15;;;2.15;;
34765;SDS011;20984;43.508;1.504;2023-07-31T12:38:14;6.03;;;2.38;;
34765;SDS011;20984;43.508;1.504;2023-07-31T12:40:40;7.05;;;2.35;;
34765;SDS011;20984;43.508;1.504;2023-07-31T12:43:07;5.13;;;2.55;;
34765;SDS011;20984;43.508;1.504;2023-07-31T12:45:33;5.80;;;2.60;;
34765;SDS011;20984;43.508;1.504;2023-07-31T12:48:00;7.63;;;2.95;;
34765;SDS011;20984;43.508;1.504;2023-07-31T12:50:26;6.85;;;2.10;;
34765;SDS011;20984;43.508;1.504;2023-07-31T12:52:53;6.75;;;2.25;;
34765;SDS011;20984;43.508;1.504;2023-07-31T12:55:20;4.60;;;2.00;;
34765;SDS011;20984;43.508;1.504;2023-07-31T12:57:46;5.10;;;2.40;;
34765;SDS011;20984;43.508;1.504;2023-07-31T13:00:12;5.85;;;2.20;;
34765;SDS011;20984;43.508;1.504;2023-07-31T13:02:38;5.47;;;2.55;;
34765;SDS011;20984;43.508;1.504;2023-07-31T13:05:04;7.05;;;2.80;;
34765;SDS011;20984;43.508;1.504;2023-07-31T13:07:30;7.53;;;2.15;;
34765;SDS011;20984;43.508;1.504;2023-07-31T13:09:55;5.93;;;2.85;;
34765;SDS011;20984;43.508;1.504;2023-07-31T13:12:21;11.95;;;4.00;;
34765;SDS011;20984;43.508;1.504;2023-07-31T13:14:47;6.65;;;2.72;;
34765;SDS011;20984;43.508;1.504;2023-07-31T13:17:12;9.38;;;2.60;;
34765;SDS011;20984;43.508;1.504;2023-07-31T13:19:38;5.97;;;2.80;;
34765;SDS011;20984;43.508;1.504;2023-07-31T13:22:04;7.35;;;2.20;;
34765;SDS011;20984;43.508;1.504;2023-07-31T13:24:29;7.00;;;2.40;;
34765;SDS011;20984;43.508;1.504;2023-07-31T13:26:55;4.53;;;2.78;;
34765;SDS011;20984;43.508;1.504;2023-07-31T13:29:21;6.03;;;2.58;;
34765;SDS011;20984;43.508;1.504;2023-07-31T13:31:47;5.05;;;2.38;;
34765;SDS011;20984;43.508;1.504;2023-07-31T13:34:14;5.90;;;2.30;;
34765;SDS011;20984;43.508;1.504;2023-07-31T13:36:40;5.30;;;2.10;;
34765;SDS011;20984;43.508;1.504;2023-07-31T13:39:06;5.45;;;2.90;;
34765;SDS011;20984;43.508;1.504;2023-07-31T13:41:32;8.80;;;2.83;;
34765;SDS011;20984;43.508;1.504;2023-07-31T13:43:58;7.88;;;2.90;;
34765;SDS011;20984;43.508;1.504;2023-07-31T13:46:23;7.32;;;2.40;;
34765;SDS011;20984;43.508;1.504;2023-07-31T13:48:50;6.28;;;2.40;;
34765;SDS011;20984;43.508;1.504;2023-07-31T13:51:16;7.20;;;3.00;;
34765;SDS011;20984;43.508;1.504;2023-07-31T13:53:42;8.55;;;2.80;;
34765;SDS011;20984;43.508;1.504;2023-07-31T13:56:07;8.00;;;3.25;;
34765;SDS011;20984;43.508;1.504;2023-07-31T13:58:33;8.10;;;3.10;;
34765;SDS011;20984;43.508;1.504;2023-07-31T14:00:59;4.40;;;2.22;;
34765;SDS011;20984;43.508;1.504;2023-07-31T14:03:24;6.55;;;2.45;;
34765;SDS011;20984;43.508;1.504;2023-07-31T14:05:51;6.18;;;2.03;;
34765;SDS011;20984;43.508;1.504;2023-07-31T14:08:17;7.22;;;2.80;;
34765;SDS011;20984;43.508;1.504;2023-07-31T14:10:43;6.63;;;2.35;;
34765;SDS011;20984;43.508;1.504;2023-07-31T14:13:09;5.95;;;3.17;;
34765;SDS011;20984;43.508;1.504;2023-07-31T14:15:34;4.72;;;2.30;;
34765;SDS011;20984;43.508;1.504;2023-07-31T14:18:01;6.35;;;2.00;;
34765;SDS011;20984;43.508;1.504;2023-07-31T14:20:27;6.70;;;2.38;;
34765;SDS011;20984;43.508;1.504;2023-07-31T14:22:53;4.45;;;2.22;;
34765;SDS011;20984;43.508;1.504;2023-07-31T14:25:19;5.30;;;3.17;;
34765;SDS011;20984;43.508;1.504;2023-07-31T14:27:45;5.72;;;2.50;;
34765;SDS011;20984;43.508;1.504;2023-07-31T14:30:11;7.22;;;2.75;;
34765;SDS011;20984;43.508;1.504;2023-07-31T14:32:36;5.05;;;2.42;;
34765;SDS011;20984;43.508;1.504;2023-07-31T14:35:02;5.90;;;2.72;;
34765;SDS011;20984;43.508;1.504;2023-07-31T14:37:36;4.65;;;2.22;;
34765;SDS011;20984;43.508;1.504;2023-07-31T14:40:03;5.57;;;2.67;;
34765;SDS011;20984;43.508;1.504;2023-07-31T14:42:29;6.57;;;2.63;;
34765;SDS011;20984;43.508;1.504;2023-07-31T14:44:54;7.40;;;4.47;;
34765;SDS011;20984;43.508;1.504;2023-07-31T14:47:20;5.10;;;2.38;;
34765;SDS011;20984;43.508;1.504;2023-07-31T14:49:46;6.05;;;3.13;;
34765;SDS011;20984;43.508;1.504;2023-07-31T14:52:11;5.50;;;2.15;;
34765;SDS011;20984;43.508;1.504;2023-07-31T14:54:37;4.93;;;1.92;;
34765;SDS011;20984;43.508;1.504;2023-07-31T14:57:03;6.70;;;2.05;;
34765;SDS011;20984;43.508;1.504;2023-07-31T14:59:29;3.70;;;2.17;;
34765;SDS011;20984;43.508;1.504;2023-07-31T15:01:54;5.63;;;2.63;;
34765;SDS011;20984;43.508;1.504;2023-07-31T15:04:20;5.00;;;2.40;;